• Join FlightAware (Why Join?)
  • Login
  • US Flag 
06:34AM EDT


 

Airport Tracker/Info


-or-


 

Live Flight TrackerFlight Track Log ✈ N264CA ✈ 30-Apr-2012 ✈ KFAT - KCRQ

Flight Track Log - Related Links

Times and Time Zones

All times are in EDT time to prevent confusion due to time zone crossing. See the N264CA flight status page for this flight to view local times or setup timezone preferences in your user account.

Time Position Orientation Groundspeed Altitude Reporting Facility
EDT Latitude Longitude Course Direction KTS MPH feet Rate Location/Type
07:47PM 36.6941 -119.6554 309° West  Level FlightAware Approximate
07:47PM 36.7678 -119.7706 140° Southeast 200 230 4,700  Level Oakland Center
07:48PM 36.7258 -119.7272 145° Southeast 208 239 7,000 2,160 Climbing Oakland Center
07:49PM 36.6878 -119.6942 144° Southeast 197 227 9,100 1,920 Climbing Oakland Center
07:50PM 36.6372 -119.6483 144° Southeast 202 232 10,900 1,800 Climbing Oakland Center
07:51PM 36.5867 -119.6028 146° Southeast 217 250 12,700 1,680 Climbing Oakland Center
07:52PM 36.5297 -119.5547 144° Southeast 228 262 14,300 1,680 Climbing Oakland Center
07:53PM 36.4728 -119.5042 146° Southeast 241 277 16,100 1,620 Climbing Oakland Center
07:54PM 36.4158 -119.4561 145° Southeast 247 284 17,600 1,320 Climbing Oakland Center
07:57PM 36.2636 -119.3228 145° Southeast 267 307 20,800 1,200 Climbing Los Angeles Center
07:58PM 36.2006 -119.2686 144° Southeast 274 315 21,900 1,080 Climbing Los Angeles Center
07:59PM 36.1372 -119.2122 145° Southeast 274 315 23,000 1,020 Climbing Los Angeles Center
08:00PM 36.0719 -119.1558 147° Southeast 279 321 24,000 480 Climbing Los Angeles Center
08:01PM 35.9983 -119.0964 143° Southeast 292 336 24,000  Level Los Angeles Center
08:02PM 35.9228 -119.0269 162° South 320 368 24,000  Level Los Angeles Center
08:03PM 35.8339 -118.9906 164° South 332 382 24,000 180 Level Los Angeles Center
08:04PM 35.7450 -118.9592 164° South 337 388 24,400 420 Climbing Los Angeles Center
08:05PM 35.6581 -118.9281 163° South 337 388 24,900 480 Climbing Los Angeles Center
08:06PM 35.5692 -118.8944 164° South 337 388 25,400 480 Climbing Los Angeles Center
08:07PM 35.4822 -118.8633 168° South 337 388 25,900 480 Climbing Los Angeles Center
08:08PM 35.3908 -118.8397 166° South 337 388 26,400 480 Climbing Los Angeles Center
08:09PM 35.3058 -118.8142 168° South 332 382 26,900 240 Climbing Los Angeles Center
08:10PM 35.2147 -118.7908 167° South 332 382 27,000  Climbing Los Angeles Center
08:11PM 35.1256 -118.7650 166° South 332 382 27,000  Level Los Angeles Center
08:12PM 35.0322 -118.7367 167° South 337 388 27,000  Level Los Angeles Center
08:13PM 34.9389 -118.7108 170° South 337 388 27,000  Level Los Angeles Center
08:14PM 34.8433 -118.6903 168° South 343 395 27,000  Level Los Angeles Center
08:15PM 34.7394 -118.6642 166° South 349 402 27,000  Level Los Angeles Center
08:16PM 34.6439 -118.6361 166° South 354 407 27,000  Level Los Angeles Center
08:17PM 34.5486 -118.6081 167° South 354 407 27,000 -240 Level Los Angeles Center
08:18PM 34.4553 -118.5825 167° South 354 407 26,600 -480 Descending Los Angeles Center
08:19PM 34.3556 -118.5544 167° South 354 407 26,100 -540 Descending Los Angeles Center
08:20PM 34.2581 -118.5264 167° South 354 407 25,600 -540 Descending Los Angeles Center
08:21PM 34.1583 -118.4986 167° South 359 413 25,100 -480 Descending Los Angeles Center
08:22PM 34.0692 -118.4733 167° South 359 413 24,700 -540 Descending Los Angeles Center
08:23PM 33.9717 -118.4456 185° South 359 413 24,100 -600 Descending Los Angeles Center
08:24PM 33.8753 -118.4556 197° South 359 413 23,600 -480 Descending Los Angeles Center
08:25PM 33.7786 -118.4903 195° South 353 406 23,200 -600 Descending Los Angeles Center
08:26PM 33.6800 -118.5225 195° South 358 412 22,500 -780 Descending Los Angeles Center
08:27PM 33.5856 -118.5522 168° South 358 412 21,700 -1,620 Descending Los Angeles Center
08:28PM 33.4942 -118.5297 143° Southeast 337 388 19,300 -2,460 Descending Los Angeles Center
08:29PM 33.4203 -118.4631 128° Southeast 320 368 16,800 -2,520 Descending Los Angeles Center
08:30PM 33.3675 -118.3819 98° East 309 356 14,300 -2,460 Descending Los Angeles Center
08:31PM 33.3547 -118.2797 98° East 280 322 11,900 -1,680 Descending Los Angeles Center
08:32PM 33.3439 -118.1875 99° East 280 322 11,000 -780 Descending Los Angeles Center
08:33PM 33.3328 -118.1025 99° East 274 315 10,400 -600 Descending Los Angeles Center
08:34PM 33.3217 -118.0178 98° East 262 302 9,900 -600 Descending Los Angeles Center
08:35PM 33.3106 -117.9256 98° East 256 295 9,200 -1,260 Descending Los Angeles Center
08:36PM 33.3000 -117.8333 103° East 260 299 7,400 -2,040 Descending Southern California TRACON
08:37PM 33.2833 -117.7500 90° East 251 289 5,100 -1,200 Descending Southern California TRACON
08:38PM 33.2833 -117.6667 107° East 231 266 5,000 -60 Descending Southern California TRACON
08:39PM 33.2667 -117.6000 103° East 234 269 5,000  Level Southern California TRACON
08:40PM 33.2500 -117.5167 90° East 233 268 5,000  Level Southern California TRACON
08:41PM 33.2500 -117.4500 103° East 234 269 5,000  Level Southern California TRACON
08:42PM 33.2333 -117.3667 90° East 234 269 5,000  Level Southern California TRACON
08:43PM 33.2333 -117.2833 90° East 240 276 5,000  Level Southern California TRACON
08:44PM 33.2333 -117.2167 90° East 237 273 5,000 -120 Level Southern California TRACON
08:45PM 33.2333 -117.1333 129° Southeast 221 254 4,800 -360 Descending Southern California TRACON
08:46PM 33.2000 -117.0833 180° South 199 229 4,400 -600 Descending Southern California TRACON
08:47PM 33.1500 -117.0833 270° West 200 230 3,600 -900 Descending Southern California TRACON
08:48PM 33.1500 -117.1333 270° West 138 159 2,600 -840 Descending Southern California TRACON
08:49PM 33.1500 -117.1667 270° West 113 130 2,000 -600 Descending Southern California TRACON